Aviation Digital Data Service (ADDS)

Output produced by METARs form (0803 UTC 30 October 2020)
found at http://www.aviationweather.gov/metar/data/
 
Forecast for: UTDD (DUSHANBE , TJ)
Text: TAF UTDD 300300Z 3004/3016 VRB02MPS 6000 FEW066 SCT120
Forecast period: 0400 to 1600 UTC 30 October 2020
Forecast type: FROM: standard forecast or significant change
Winds: variable direction winds at 5 MPH (4 knots; 2.1 m/s)
Visibility: 4 miles (6 km)
Ceiling: at least 12,000 feet AGL
Clouds: few clouds at 6600 feet AGL
scattered clouds at 12000 feet AGL
Weather: no significant weather forecast for this period
Text: TEMPO 3004/3005 3100 BR FU
Forecast period: 0400 to 0500 UTC 30 October 2020
Forecast type: TEMPORARY: The following changes expected for less than half the time period
Visibility: 1.93 miles (3.11 km)
Ceiling: unknown
Clouds: missing
Weather: BR FU  (mist, smoke)
Text: TEMPO 3011/3014 27005MPS
Forecast period: 1100 to 1400 UTC 30 October 2020
Forecast type: TEMPORARY: The following changes expected for less than half the time period
Winds: from the W (270 degrees) at 12 MPH (10 knots; 5.1 m/s)
Visibility: missing
Ceiling: unknown
Clouds: missing
Weather: no significant weather forecast for this period